createdAt,value
2023-02-26T00:00:54.543Z,12.94
2023-02-26T00:01:58.393Z,12.99
2023-02-26T00:03:00.076Z,12.99
2023-02-26T00:04:04.676Z,12.99
2023-02-26T00:05:07.066Z,12.96
2023-02-26T00:06:09.532Z,13.00
2023-02-26T00:07:11.146Z,12.92
2023-02-26T00:08:12.711Z,12.91
2023-02-26T00:09:14.292Z,12.83
2023-02-26T00:10:16.690Z,12.85
2023-02-26T00:11:18.531Z,12.86
2023-02-26T00:12:20.448Z,12.81
2023-02-26T00:13:22.399Z,12.84
2023-02-26T00:14:24.767Z,12.88
2023-02-26T00:15:26.847Z,12.90
2023-02-26T00:16:33.500Z,12.92
2023-02-26T00:17:49.124Z,12.92
2023-02-26T00:18:50.985Z,12.93
2023-02-26T00:19:52.789Z,12.90
2023-02-26T00:20:55.322Z,12.88
2023-02-26T00:21:57.130Z,12.88
2023-02-26T00:22:59.007Z,12.87
2023-02-26T00:24:02.162Z,12.90
2023-02-26T00:25:04.091Z,12.92
2023-02-26T00:26:05.639Z,12.91
2023-02-26T00:27:07.708Z,12.89
2023-02-26T00:28:09.698Z,12.86
2023-02-26T00:29:11.497Z,12.85
2023-02-26T00:30:13.662Z,12.84
2023-02-26T00:31:16.888Z,12.87
2023-02-26T00:32:18.899Z,12.90
2023-02-26T00:33:20.880Z,12.88
2023-02-26T00:34:22.833Z,12.86
2023-02-26T00:35:24.727Z,12.88
2023-02-26T00:36:41.493Z,12.87
2023-02-26T00:37:56.054Z,12.88
2023-02-26T00:39:05.110Z,12.90
2023-02-26T00:40:21.796Z,12.90
2023-02-26T00:41:23.674Z,12.88
2023-02-26T00:42:26.001Z,12.87
2023-02-26T00:43:27.868Z,12.84
2023-02-26T00:44:29.768Z,12.86
2023-02-26T00:45:32.076Z,12.82
2023-02-26T00:46:55.949Z,12.81
2023-02-26T00:48:13.283Z,12.83
2023-02-26T00:49:18.003Z,12.80
2023-02-26T00:50:25.242Z,12.79
2023-02-26T00:51:40.955Z,12.78
2023-02-26T00:52:47.291Z,12.81
2023-02-26T00:54:09.506Z,12.85
2023-02-26T00:55:11.199Z,12.85
2023-02-26T00:56:14.144Z,12.87
2023-02-26T00:57:15.734Z,12.89
2023-02-26T00:58:17.303Z,12.89
2023-02-26T00:59:20.073Z,12.87
2023-02-26T01:00:22.186Z,12.88
2023-02-26T01:01:23.880Z,12.86
2023-02-26T01:02:25.798Z,12.87
2023-02-26T01:03:27.597Z,12.87
2023-02-26T01:04:29.416Z,12.88
2023-02-26T01:05:31.445Z,12.89
2023-02-26T01:06:34.891Z,12.88
2023-02-26T01:07:47.241Z,12.93
2023-02-26T01:09:11.021Z,12.94
2023-02-26T01:10:14.536Z,12.90
2023-02-26T01:11:16.420Z,12.91
2023-02-26T01:12:18.168Z,12.91
2023-02-26T01:13:20.119Z,12.90
2023-02-26T01:14:23.175Z,12.92
2023-02-26T01:15:25.601Z,12.93
2023-02-26T01:16:30.126Z,12.95
2023-02-26T01:17:39.738Z,12.97
2023-02-26T01:18:46.377Z,12.97
2023-02-26T01:20:01.015Z,12.95
2023-02-26T01:21:14.785Z,12.99
2023-02-26T01:22:22.278Z,13.01
2023-02-26T01:23:27.004Z,13.02
2023-02-26T01:24:31.062Z,13.02
2023-02-26T01:25:59.987Z,13.04
2023-02-26T01:27:01.690Z,13.03
2023-02-26T01:28:03.423Z,12.97
2023-02-26T01:29:05.151Z,12.93
2023-02-26T01:30:08.059Z,12.92
2023-02-26T01:31:27.048Z,12.90
2023-02-26T01:32:42.417Z,12.86
2023-02-26T01:33:55.866Z,12.86
2023-02-26T01:35:03.239Z,12.83
2023-02-26T01:36:12.698Z,12.78
2023-02-26T01:37:19.840Z,12.72
2023-02-26T01:38:44.030Z,12.71
2023-02-26T01:40:02.625Z,12.72
2023-02-26T01:41:25.497Z,12.75
2023-02-26T01:42:35.422Z,12.79
2023-02-26T01:43:51.268Z,12.80
2023-02-26T01:45:11.074Z,12.78
2023-02-26T01:46:18.640Z,12.79
2023-02-26T01:47:22.891Z,12.83
2023-02-26T01:48:53.020Z,12.91
2023-02-26T01:49:55.727Z,12.85
2023-02-26T01:50:57.396Z,12.82
2023-02-26T01:52:00.929Z,12.84
2023-02-26T01:53:24.747Z,12.86
2023-02-26T01:54:32.341Z,12.90
2023-02-26T01:55:34.104Z,12.92
2023-02-26T01:56:36.467Z,12.90
2023-02-26T01:57:38.062Z,12.91
2023-02-26T01:58:40.129Z,12.90
2023-02-26T01:59:45.380Z,12.91
2023-02-26T02:00:47.107Z,12.92
2023-02-26T02:01:48.731Z,12.92
2023-02-26T02:02:50.960Z,12.93
2023-02-26T02:03:52.971Z,12.93
2023-02-26T02:04:54.697Z,12.92
2023-02-26T02:06:18.247Z,12.89
2023-02-26T02:07:19.875Z,12.89
2023-02-26T02:08:22.368Z,12.88
2023-02-26T02:09:23.984Z,12.87
2023-02-26T02:10:26.463Z,12.85
2023-02-26T02:11:28.060Z,12.84
2023-02-26T02:12:46.205Z,12.80
2023-02-26T02:13:50.462Z,12.78
2023-02-26T02:14:54.810Z,12.77
2023-02-26T02:16:29.917Z,12.72
2023-02-26T02:17:40.374Z,12.70
2023-02-26T02:18:58.806Z,12.63
2023-02-26T02:20:28.399Z,12.61
2023-02-26T02:21:38.899Z,12.56
2023-02-26T02:23:10.562Z,12.54
2023-02-26T02:24:20.155Z,12.48
2023-02-26T02:25:49.437Z,12.43
2023-02-26T02:27:55.486Z,12.37
2023-02-26T02:29:10.760Z,12.36
2023-02-26T02:30:17.941Z,12.38
2023-02-26T02:31:26.266Z,12.38
2023-02-26T02:32:29.845Z,12.43
2023-02-26T02:33:40.726Z,12.47
2023-02-26T02:34:59.374Z,12.49
2023-02-26T02:36:13.349Z,12.52
2023-02-26T02:37:25.517Z,12.55
2023-02-26T02:38:36.899Z,12.54
2023-02-26T02:39:46.692Z,12.51
2023-02-26T02:40:55.125Z,12.49
2023-02-26T02:42:03.267Z,12.46
2023-02-26T02:43:11.051Z,12.43
2023-02-26T02:44:19.225Z,12.39
2023-02-26T02:45:47.191Z,12.36
2023-02-26T02:46:52.892Z,12.34
2023-02-26T02:48:01.612Z,12.38
2023-02-26T02:49:18.533Z,12.37
2023-02-26T02:50:28.225Z,12.38
2023-02-26T02:51:37.824Z,12.36
2023-02-26T02:52:49.031Z,12.35
2023-02-26T02:54:03.593Z,12.34
2023-02-26T02:55:18.549Z,12.35
2023-02-26T02:56:25.847Z,12.37
2023-02-26T02:57:37.507Z,12.38
2023-02-26T02:58:50.725Z,12.36
2023-02-26T02:59:58.004Z,12.33
2023-02-26T03:01:06.258Z,12.31
2023-02-26T03:02:23.609Z,12.29
2023-02-26T03:03:28.597Z,12.29
2023-02-26T03:04:30.298Z,12.26
2023-02-26T03:05:32.255Z,12.27
2023-02-26T03:06:34.536Z,12.28
2023-02-26T03:07:43.542Z,12.25
2023-02-26T03:08:47.458Z,12.23
2023-02-26T03:09:49.282Z,12.23
2023-02-26T03:10:51.010Z,12.26
2023-02-26T03:11:52.617Z,12.25
2023-02-26T03:12:54.156Z,12.24
2023-02-26T03:13:56.146Z,12.24
2023-02-26T03:14:57.906Z,12.25
2023-02-26T03:16:05.439Z,12.26
2023-02-26T03:17:21.145Z,12.28
2023-02-26T03:18:46.186Z,12.30
2023-02-26T03:20:06.948Z,12.31
2023-02-26T03:21:33.273Z,12.28
2023-02-26T03:22:49.398Z,12.23
2023-02-26T03:24:06.211Z,12.21
2023-02-26T03:25:18.200Z,12.19
2023-02-26T03:26:34.295Z,12.21
2023-02-26T03:28:04.924Z,12.23
2023-02-26T03:29:41.921Z,12.22
2023-02-26T03:31:17.259Z,12.17
2023-02-26T03:32:50.448Z,12.18
2023-02-26T03:34:00.564Z,12.17
2023-02-26T03:35:10.857Z,12.15
2023-02-26T03:36:19.882Z,12.15
2023-02-26T03:37:28.277Z,12.13
2023-02-26T03:38:51.407Z,12.13
2023-02-26T03:39:57.942Z,12.14
2023-02-26T03:41:16.138Z,12.13
2023-02-26T03:42:24.039Z,12.13
2023-02-26T03:43:55.583Z,12.10
2023-02-26T03:45:06.589Z,12.09
2023-02-26T03:46:13.691Z,12.11
2023-02-26T03:47:17.041Z,12.11
2023-02-26T03:48:25.196Z,12.12
2023-02-26T03:49:49.541Z,12.14
2023-02-26T03:50:56.610Z,12.13
2023-02-26T03:52:01.020Z,12.12
2023-02-26T03:53:06.441Z,12.13
2023-02-26T03:54:18.131Z,12.12
2023-02-26T03:55:25.191Z,12.10
2023-02-26T03:56:37.088Z,12.06
2023-02-26T03:57:39.567Z,12.02
2023-02-26T03:58:41.547Z,12.03
2023-02-26T03:59:43.427Z,11.97
2023-02-26T04:00:50.359Z,11.95
2023-02-26T04:01:55.599Z,11.94
2023-02-26T04:03:02.750Z,11.98
2023-02-26T04:04:11.541Z,11.96
2023-02-26T04:05:19.021Z,11.96
2023-02-26T04:06:22.798Z,12.00
2023-02-26T04:07:25.136Z,12.02
2023-02-26T04:08:29.650Z,12.02
2023-02-26T04:09:31.279Z,12.02
2023-02-26T04:10:42.086Z,12.01
2023-02-26T04:11:44.003Z,12.02
2023-02-26T04:12:45.802Z,12.03
2023-02-26T04:13:47.610Z,12.02
2023-02-26T04:14:50.211Z,12.01
2023-02-26T04:15:52.206Z,12.02
2023-02-26T04:16:54.030Z,12.02
2023-02-26T04:17:55.651Z,12.01
2023-02-26T04:18:57.301Z,12.00
2023-02-26T04:19:58.924Z,12.01
2023-02-26T04:21:00.617Z,12.00
2023-02-26T04:22:02.191Z,12.01
2023-02-26T04:23:03.920Z,12.02
2023-02-26T04:24:05.707Z,12.00
2023-02-26T04:25:07.605Z,12.01
2023-02-26T04:26:09.184Z,12.01
2023-02-26T04:27:10.705Z,11.96
2023-02-26T04:28:13.168Z,11.99
2023-02-26T04:29:14.872Z,12.00
2023-02-26T04:30:16.808Z,12.03
2023-02-26T04:31:18.549Z,12.03
2023-02-26T04:32:20.283Z,12.04
2023-02-26T04:33:23.228Z,12.07
2023-02-26T04:34:24.824Z,12.07
2023-02-26T04:35:26.398Z,12.09
2023-02-26T04:36:28.120Z,12.10
2023-02-26T04:37:29.774Z,12.11
2023-02-26T04:38:31.403Z,12.11
2023-02-26T04:39:32.999Z,12.13
2023-02-26T04:40:34.592Z,12.14
2023-02-26T04:41:36.882Z,12.16
2023-02-26T04:42:38.422Z,12.16
2023-02-26T04:43:39.942Z,12.15
2023-02-26T04:44:41.572Z,12.16
2023-02-26T04:45:48.809Z,12.14
2023-02-26T04:46:50.518Z,12.15
2023-02-26T04:47:52.154Z,12.14
2023-02-26T04:48:53.798Z,12.12
2023-02-26T04:49:55.456Z,12.09
2023-02-26T04:50:57.014Z,12.07
2023-02-26T04:51:59.194Z,12.08
2023-02-26T04:53:00.788Z,12.08
2023-02-26T04:54:02.335Z,12.07
2023-02-26T04:55:04.401Z,12.05
2023-02-26T04:56:06.918Z,12.04
2023-02-26T04:57:08.494Z,12.04
2023-02-26T04:58:11.490Z,12.02
2023-02-26T04:59:13.539Z,12.02
2023-02-26T05:00:15.982Z,12.02
2023-02-26T05:01:17.637Z,12.00
2023-02-26T05:02:19.223Z,12.00
2023-02-26T05:03:21.424Z,11.95
2023-02-26T05:04:23.061Z,11.94
2023-02-26T05:05:24.793Z,11.94
2023-02-26T05:06:26.540Z,11.97
2023-02-26T05:07:28.347Z,11.99
2023-02-26T05:08:30.214Z,11.99
2023-02-26T05:09:31.753Z,11.96
2023-02-26T05:10:33.294Z,11.95
2023-02-26T05:11:34.810Z,11.91
2023-02-26T05:12:36.517Z,11.91
2023-02-26T05:13:38.844Z,11.93
2023-02-26T05:14:40.377Z,11.95
2023-02-26T05:15:42.038Z,11.94
2023-02-26T05:16:43.662Z,11.95
2023-02-26T05:17:45.212Z,11.96
2023-02-26T05:18:46.745Z,11.98
2023-02-26T05:19:48.461Z,11.99
2023-02-26T05:20:56.763Z,12.02
2023-02-26T05:21:58.305Z,12.00
2023-02-26T05:22:59.863Z,12.05
2023-02-26T05:24:02.356Z,12.06
2023-02-26T05:25:05.048Z,12.07
2023-02-26T05:26:06.588Z,12.09
2023-02-26T05:27:08.210Z,12.07
2023-02-26T05:28:09.770Z,12.07
2023-02-26T05:29:11.296Z,12.06
2023-02-26T05:30:15.068Z,12.06
2023-02-26T05:31:16.787Z,12.04
2023-02-26T05:32:18.434Z,12.09
2023-02-26T05:33:20.038Z,12.08
2023-02-26T05:34:21.715Z,12.09
2023-02-26T05:35:23.318Z,12.09
2023-02-26T05:36:25.530Z,12.08
2023-02-26T05:37:27.260Z,12.11
2023-02-26T05:38:28.785Z,12.15
2023-02-26T05:39:30.330Z,12.19
2023-02-26T05:40:31.906Z,12.21
2023-02-26T05:41:33.542Z,12.23
2023-02-26T05:42:35.121Z,12.24
2023-02-26T05:43:36.800Z,12.24
2023-02-26T05:44:38.392Z,12.23
2023-02-26T05:45:39.936Z,12.26
2023-02-26T05:46:41.493Z,12.30
2023-02-26T05:47:43.185Z,12.29
2023-02-26T05:48:45.890Z,12.29
2023-02-26T05:49:47.533Z,12.33
2023-02-26T05:50:49.873Z,12.33
2023-02-26T05:51:51.444Z,12.36
2023-02-26T05:52:53.521Z,12.39
2023-02-26T05:53:55.537Z,12.44
2023-02-26T05:54:57.078Z,12.45
2023-02-26T05:55:59.199Z,12.49
2023-02-26T05:57:00.806Z,12.51
2023-02-26T05:58:02.388Z,12.47
2023-02-26T05:59:04.039Z,12.46
2023-02-26T06:00:07.481Z,12.44
2023-02-26T06:01:09.079Z,12.45
2023-02-26T06:02:10.715Z,12.45
2023-02-26T06:03:12.657Z,12.45
2023-02-26T06:04:14.220Z,12.49
2023-02-26T06:05:15.852Z,12.48
2023-02-26T06:06:18.536Z,12.51
2023-02-26T06:07:20.142Z,12.53
2023-02-26T06:08:21.799Z,12.55
2023-02-26T06:09:23.410Z,12.53
2023-02-26T06:10:24.976Z,12.55
2023-02-26T06:11:26.613Z,12.54
2023-02-26T06:12:28.178Z,12.56
2023-02-26T06:13:29.717Z,12.54
2023-02-26T06:14:31.300Z,12.54
2023-02-26T06:15:33.003Z,12.57
2023-02-26T06:16:35.941Z,12.60
2023-02-26T06:17:40.569Z,12.61
2023-02-26T06:18:42.383Z,12.65
2023-02-26T06:19:44.918Z,12.71
2023-02-26T06:20:46.451Z,12.77
2023-02-26T06:21:48.169Z,12.79
2023-02-26T06:22:49.732Z,12.82
2023-02-26T06:23:51.284Z,12.85
2023-02-26T06:24:55.073Z,12.89
2023-02-26T06:25:56.684Z,13.07
2023-02-26T06:26:58.360Z,13.07
2023-02-26T06:27:59.910Z,13.11
2023-02-26T06:29:02.314Z,13.16
2023-02-26T06:30:04.775Z,13.26
2023-02-26T06:31:06.623Z,13.30
2023-02-26T06:32:08.728Z,13.28
2023-02-26T06:33:10.453Z,13.31
2023-02-26T06:34:12.045Z,13.36
2023-02-26T06:35:13.675Z,13.39
2023-02-26T06:36:15.240Z,13.42
2023-02-26T06:37:16.942Z,13.43
2023-02-26T06:38:18.671Z,13.40
2023-02-26T06:39:20.320Z,13.46
2023-02-26T06:40:22.031Z,13.55
2023-02-26T06:41:23.575Z,13.50
2023-02-26T06:42:25.298Z,13.51
2023-02-26T06:43:26.985Z,13.52
2023-02-26T06:44:28.537Z,13.51
2023-02-26T06:45:30.140Z,13.53
2023-02-26T06:46:31.688Z,13.55
2023-02-26T06:47:33.283Z,13.53
2023-02-26T06:48:34.853Z,13.54
2023-02-26T06:49:36.397Z,13.52
2023-02-26T06:50:38.018Z,13.46
2023-02-26T06:51:39.582Z,13.44
2023-02-26T06:52:43.594Z,13.39
2023-02-26T06:53:45.142Z,13.39
2023-02-26T06:54:46.679Z,13.31
2023-02-26T06:55:51.504Z,13.35
2023-02-26T06:56:53.210Z,13.36
2023-02-26T06:57:55.991Z,13.30
2023-02-26T06:58:57.601Z,13.31
2023-02-26T06:59:59.324Z,13.30
2023-02-26T07:01:00.975Z,13.23
2023-02-26T07:02:02.599Z,13.18
2023-02-26T07:03:05.264Z,13.17
2023-02-26T07:04:06.922Z,13.16
2023-02-26T07:05:08.925Z,13.15
2023-02-26T07:06:26.488Z,13.17
2023-02-26T07:07:29.221Z,13.21
2023-02-26T07:08:30.785Z,13.20
2023-02-26T07:09:32.375Z,13.18
2023-02-26T07:10:35.361Z,13.24
2023-02-26T07:11:36.915Z,13.27
2023-02-26T07:12:38.639Z,13.31
2023-02-26T07:13:40.326Z,13.38
2023-02-26T07:14:43.158Z,13.42
2023-02-26T07:15:46.276Z,13.38
2023-02-26T07:16:47.999Z,13.40
2023-02-26T07:17:49.612Z,13.43
2023-02-26T07:18:51.185Z,13.44
2023-02-26T07:19:53.556Z,13.41
2023-02-26T07:20:55.136Z,13.45
2023-02-26T07:21:56.944Z,13.49
2023-02-26T07:22:58.527Z,13.56
2023-02-26T07:24:00.315Z,13.60
2023-02-26T07:25:01.900Z,13.61
2023-02-26T07:26:03.506Z,13.62
2023-02-26T07:27:05.044Z,13.67
2023-02-26T07:28:06.710Z,13.69
2023-02-26T07:29:08.582Z,13.74
2023-02-26T07:30:11.230Z,13.74
2023-02-26T07:31:13.071Z,13.72
2023-02-26T07:32:14.715Z,13.80
2023-02-26T07:33:16.423Z,13.85
2023-02-26T07:34:17.954Z,13.95
2023-02-26T07:35:19.529Z,14.01
2023-02-26T07:36:21.088Z,14.07
2023-02-26T07:37:22.860Z,14.12
2023-02-26T07:38:24.407Z,14.01
2023-02-26T07:39:27.364Z,14.02
2023-02-26T07:40:29.060Z,13.96
2023-02-26T07:41:30.580Z,14.00
2023-02-26T07:42:32.158Z,13.99
2023-02-26T07:43:33.785Z,14.04
2023-02-26T07:44:35.371Z,14.03
2023-02-26T07:45:37.095Z,14.03
2023-02-26T07:46:38.736Z,14.09
2023-02-26T07:47:40.350Z,14.03
2023-02-26T07:48:41.912Z,14.05
2023-02-26T07:49:43.736Z,14.07
2023-02-26T07:50:45.704Z,14.10
2023-02-26T07:51:48.280Z,14.19
2023-02-26T07:52:49.837Z,14.17
2023-02-26T07:53:51.421Z,14.09
2023-02-26T07:54:52.993Z,14.13
2023-02-26T07:55:54.588Z,14.12
2023-02-26T07:56:56.206Z,14.06
2023-02-26T07:57:57.786Z,14.07
2023-02-26T07:58:59.333Z,14.17
2023-02-26T08:00:00.892Z,14.22
2023-02-26T08:01:02.528Z,14.20
2023-02-26T08:02:04.496Z,14.18
2023-02-26T08:03:06.045Z,14.32
2023-02-26T08:04:07.706Z,14.35
2023-02-26T08:05:09.529Z,14.40
2023-02-26T08:06:11.121Z,14.39
2023-02-26T08:07:12.714Z,14.48
2023-02-26T08:08:14.534Z,14.57
2023-02-26T08:09:16.164Z,14.59
2023-02-26T08:10:17.854Z,14.62
2023-02-26T08:11:19.389Z,14.64
2023-02-26T08:12:20.961Z,14.66
2023-02-26T08:13:22.525Z,14.68
2023-02-26T08:14:24.101Z,14.68
2023-02-26T08:15:25.739Z,14.71
2023-02-26T08:16:27.641Z,14.63
2023-02-26T08:17:30.051Z,14.61
2023-02-26T08:18:31.678Z,14.68
2023-02-26T08:19:33.236Z,14.67
2023-02-26T08:20:35.278Z,14.70
2023-02-26T08:21:37.131Z,14.69
2023-02-26T08:22:38.735Z,14.82
2023-02-26T08:23:40.436Z,14.76
2023-02-26T08:24:42.192Z,14.76
2023-02-26T08:25:43.730Z,14.77
2023-02-26T08:26:46.260Z,14.75
2023-02-26T08:27:47.820Z,14.78
2023-02-26T08:28:49.584Z,14.74
2023-02-26T08:29:51.210Z,14.74
2023-02-26T08:30:53.907Z,14.78
2023-02-26T08:31:55.642Z,14.78
2023-02-26T08:32:57.362Z,14.84
2023-02-26T08:33:58.936Z,14.74
2023-02-26T08:35:00.498Z,14.81
2023-02-26T08:36:02.080Z,14.88
2023-02-26T08:37:03.629Z,14.83
2023-02-26T08:38:08.148Z,14.88
2023-02-26T08:39:09.722Z,14.88
2023-02-26T08:40:14.791Z,14.84
2023-02-26T08:41:17.720Z,14.81
2023-02-26T08:42:20.558Z,14.76
2023-02-26T08:43:22.309Z,14.72
2023-02-26T08:44:23.815Z,14.70
2023-02-26T08:45:25.368Z,14.68
2023-02-26T08:46:27.280Z,14.69
2023-02-26T08:47:29.374Z,14.72
2023-02-26T08:48:31.377Z,14.77
2023-02-26T08:49:33.096Z,14.74
2023-02-26T08:50:34.613Z,14.75
2023-02-26T08:51:36.154Z,14.75
2023-02-26T08:52:38.760Z,14.83
2023-02-26T08:53:40.448Z,14.89
2023-02-26T08:54:41.980Z,14.91
2023-02-26T08:55:44.958Z,14.90
2023-02-26T08:56:46.522Z,14.92
2023-02-26T08:57:48.084Z,14.91
2023-02-26T08:58:49.607Z,14.99
2023-02-26T08:59:51.171Z,15.04
2023-02-26T09:00:53.270Z,15.01
2023-02-26T09:01:54.864Z,15.03
2023-02-26T09:02:56.576Z,15.06
2023-02-26T09:03:58.190Z,15.10
2023-02-26T09:04:59.737Z,15.05
2023-02-26T09:06:01.727Z,15.06
2023-02-26T09:07:03.292Z,15.08
2023-02-26T09:08:08.139Z,14.94
2023-02-26T09:09:10.120Z,14.96
2023-02-26T09:10:12.768Z,15.00
2023-02-26T09:11:14.355Z,15.00
2023-02-26T09:12:16.882Z,15.03
2023-02-26T09:13:18.560Z,15.10
2023-02-26T09:14:20.583Z,15.09
2023-02-26T09:15:22.130Z,15.11
2023-02-26T09:16:24.159Z,15.14
2023-02-26T09:17:26.189Z,15.23
2023-02-26T09:18:27.845Z,15.25
2023-02-26T09:19:29.384Z,15.23
2023-02-26T09:20:30.907Z,15.22
2023-02-26T09:21:32.585Z,15.19
2023-02-26T09:22:34.134Z,15.18
2023-02-26T09:23:35.828Z,15.20
2023-02-26T09:24:37.403Z,15.32
2023-02-26T09:25:39.746Z,15.37
2023-02-26T09:26:41.304Z,15.47
2023-02-26T09:27:42.901Z,15.53
2023-02-26T09:28:44.465Z,15.54
2023-02-26T09:29:46.036Z,15.46
2023-02-26T09:30:48.107Z,15.46
2023-02-26T09:31:49.771Z,15.43
2023-02-26T09:32:51.481Z,15.38
2023-02-26T09:33:53.066Z,15.44
2023-02-26T09:34:54.646Z,15.54
2023-02-26T09:35:56.294Z,15.55
2023-02-26T09:36:57.853Z,15.54
2023-02-26T09:37:59.488Z,15.47
2023-02-26T09:39:01.084Z,15.47
2023-02-26T09:40:03.723Z,15.51
2023-02-26T09:41:09.822Z,15.49
2023-02-26T09:42:36.028Z,15.45
2023-02-26T09:43:49.653Z,15.40
2023-02-26T09:44:53.797Z,15.41
2023-02-26T09:45:59.993Z,15.41
2023-02-26T09:47:25.263Z,15.38
2023-02-26T09:48:29.103Z,15.26
2023-02-26T09:49:49.317Z,15.20
2023-02-26T09:50:57.823Z,15.16
2023-02-26T09:52:17.754Z,15.14
2023-02-26T09:53:28.123Z,15.15
2023-02-26T09:54:36.671Z,15.09
2023-02-26T09:55:44.973Z,15.05
2023-02-26T09:56:47.096Z,15.07
2023-02-26T09:57:52.053Z,15.09
2023-02-26T09:58:55.521Z,15.16
2023-02-26T09:59:58.283Z,15.13
2023-02-26T10:01:19.164Z,15.19
2023-02-26T10:02:32.612Z,15.23
2023-02-26T10:04:02.118Z,15.21
2023-02-26T10:06:08.494Z,15.18
2023-02-26T10:07:21.347Z,15.24
2023-02-26T10:08:29.755Z,15.33
2023-02-26T10:10:02.052Z,15.33
2023-02-26T10:11:26.559Z,15.27
2023-02-26T10:12:31.927Z,15.31
2023-02-26T10:13:56.718Z,15.40
2023-02-26T10:15:14.567Z,15.42
2023-02-26T10:16:23.400Z,15.45
2023-02-26T10:17:40.984Z,15.35
2023-02-26T10:18:55.429Z,15.38
2023-02-26T10:20:04.268Z,15.32
2023-02-26T10:21:17.728Z,15.33
2023-02-26T10:22:22.280Z,15.38
2023-02-26T10:23:46.176Z,15.44
2023-02-26T10:24:55.572Z,15.41
2023-02-26T10:26:19.863Z,15.40
2023-02-26T10:27:37.950Z,15.32
2023-02-26T10:29:10.993Z,15.45
2023-02-26T10:30:41.357Z,15.40
2023-02-26T10:32:03.532Z,15.33
2023-02-26T10:33:25.283Z,15.33
2023-02-26T10:34:52.652Z,15.33
2023-02-26T10:35:59.370Z,15.43
2023-02-26T10:37:36.404Z,15.43
2023-02-26T10:38:38.130Z,15.45
2023-02-26T10:39:48.384Z,15.53
2023-02-26T10:40:53.654Z,15.53
2023-02-26T10:41:59.209Z,15.44
2023-02-26T10:43:27.485Z,15.42
2023-02-26T10:44:55.130Z,15.36
2023-02-26T10:45:57.415Z,15.41
2023-02-26T10:47:30.895Z,15.51
2023-02-26T10:48:41.215Z,15.64
2023-02-26T10:50:09.769Z,15.55
2023-02-26T10:51:18.033Z,15.52
2023-02-26T10:52:23.646Z,15.53
2023-02-26T10:53:27.844Z,15.49
2023-02-26T10:54:43.036Z,15.48
2023-02-26T10:56:13.829Z,15.51
2023-02-26T10:57:38.103Z,15.44
2023-02-26T10:58:40.150Z,15.46
2023-02-26T10:59:41.727Z,15.40
2023-02-26T11:00:48.984Z,15.44
2023-02-26T11:01:52.618Z,15.39
2023-02-26T11:02:56.339Z,15.42
2023-02-26T11:04:05.797Z,15.36
2023-02-26T11:05:18.126Z,15.33
2023-02-26T11:06:30.107Z,15.31
2023-02-26T11:07:33.167Z,15.24
2023-02-26T11:08:40.865Z,15.26
2023-02-26T11:09:45.917Z,15.30
2023-02-26T11:10:55.302Z,15.23
2023-02-26T11:12:05.438Z,15.30
2023-02-26T11:13:07.168Z,15.29
2023-02-26T11:14:10.119Z,15.24
2023-02-26T11:15:22.179Z,15.27
2023-02-26T11:16:23.798Z,15.28
2023-02-26T11:17:32.338Z,15.35
2023-02-26T11:18:58.609Z,15.37
2023-02-26T11:20:05.372Z,15.44
2023-02-26T11:21:08.878Z,15.47
2023-02-26T11:22:14.338Z,15.49
2023-02-26T11:23:22.494Z,15.54
2023-02-26T11:24:47.030Z,15.59
2023-02-26T11:25:55.542Z,15.61
2023-02-26T11:27:04.114Z,15.66
2023-02-26T11:28:19.067Z,15.60
2023-02-26T11:29:23.129Z,15.57
2023-02-26T11:30:27.585Z,15.57
2023-02-26T11:31:30.234Z,15.69
2023-02-26T11:32:37.580Z,15.59
2023-02-26T11:33:41.038Z,15.65
2023-02-26T11:34:48.753Z,15.56
2023-02-26T11:35:51.289Z,15.56
2023-02-26T11:36:57.042Z,15.56
2023-02-26T11:38:02.541Z,15.63
2023-02-26T11:39:08.654Z,15.57
2023-02-26T11:40:22.607Z,15.55
2023-02-26T11:41:26.552Z,15.43
2023-02-26T11:42:28.402Z,15.50
2023-02-26T11:43:44.479Z,15.47
2023-02-26T11:44:48.267Z,15.53
2023-02-26T11:46:00.863Z,15.54
2023-02-26T11:47:07.237Z,15.54
2023-02-26T11:48:19.147Z,15.51
2023-02-26T11:49:23.867Z,15.52
2023-02-26T11:50:26.067Z,15.56
2023-02-26T11:51:29.673Z,15.53
2023-02-26T11:52:40.089Z,15.53
2023-02-26T11:54:01.313Z,15.48
2023-02-26T11:55:17.628Z,15.49
2023-02-26T11:56:30.238Z,15.51
2023-02-26T11:57:33.364Z,15.51
2023-02-26T11:58:38.143Z,15.58
2023-02-26T11:59:40.995Z,15.52
2023-02-26T12:00:42.634Z,15.57
2023-02-26T12:01:44.348Z,15.64
2023-02-26T12:02:46.011Z,15.67
2023-02-26T12:03:51.099Z,15.61
2023-02-26T12:04:56.861Z,15.58
2023-02-26T12:06:01.339Z,15.65
2023-02-26T12:07:03.034Z,15.63
2023-02-26T12:08:13.249Z,15.56
2023-02-26T12:09:15.158Z,15.55
2023-02-26T12:10:23.282Z,15.62
2023-02-26T12:11:44.069Z,15.60
2023-02-26T12:12:51.940Z,15.60
2023-02-26T12:14:08.718Z,15.74
2023-02-26T12:15:11.279Z,15.70
2023-02-26T12:16:24.005Z,15.78
2023-02-26T12:17:47.123Z,15.77
2023-02-26T12:18:59.457Z,15.82
2023-02-26T12:20:47.827Z,15.87
2023-02-26T12:21:58.275Z,15.77
2023-02-26T12:23:20.856Z,15.70
2023-02-26T12:24:40.341Z,15.66
2023-02-26T12:25:47.836Z,15.80
2023-02-26T12:26:59.538Z,15.76
2023-02-26T12:28:25.362Z,15.78
2023-02-26T12:30:08.998Z,15.84
2023-02-26T12:31:42.260Z,15.82
2023-02-26T12:33:08.758Z,15.88
2023-02-26T12:34:10.270Z,15.94
2023-02-26T12:35:34.166Z,16.02
2023-02-26T12:36:49.059Z,15.93
2023-02-26T12:38:20.716Z,15.86
2023-02-26T12:39:45.464Z,15.86
2023-02-26T12:40:49.750Z,15.96
2023-02-26T12:42:09.964Z,15.99
2023-02-26T12:43:46.925Z,15.92
2023-02-26T12:44:58.745Z,15.87
2023-02-26T12:46:15.799Z,15.94
2023-02-26T12:47:54.975Z,15.97
2023-02-26T12:49:32.852Z,15.85
2023-02-26T12:50:39.942Z,15.83
2023-02-26T12:52:06.035Z,15.90
2023-02-26T12:53:39.591Z,15.77
2023-02-26T12:55:06.267Z,15.72
2023-02-26T12:56:27.411Z,15.70
2023-02-26T12:58:05.863Z,15.70
2023-02-26T12:59:26.045Z,15.67
2023-02-26T13:00:39.569Z,15.63
2023-02-26T13:02:18.518Z,15.66
2023-02-26T13:03:57.360Z,15.60
2023-02-26T13:05:12.376Z,15.63
2023-02-26T13:06:33.641Z,15.67
2023-02-26T13:08:00.629Z,15.66
2023-02-26T13:09:32.429Z,15.67
2023-02-26T13:10:43.300Z,15.68
2023-02-26T13:11:53.998Z,15.70
2023-02-26T13:13:15.245Z,15.63
2023-02-26T13:14:16.720Z,15.64
2023-02-26T13:15:38.531Z,15.59
2023-02-26T13:16:52.398Z,15.63
2023-02-26T13:17:56.744Z,15.66
2023-02-26T13:19:26.214Z,15.64
2023-02-26T13:20:29.130Z,15.64
2023-02-26T13:21:35.366Z,15.67
2023-02-26T13:22:42.579Z,15.69
2023-02-26T13:24:12.540Z,15.60
2023-02-26T13:25:48.718Z,15.63
2023-02-26T13:26:53.518Z,15.65
2023-02-26T13:27:59.751Z,15.63
2023-02-26T13:29:29.627Z,15.63
2023-02-26T13:30:36.229Z,15.61
2023-02-26T13:31:48.997Z,15.63
2023-02-26T13:32:54.525Z,15.56
2023-02-26T13:33:59.764Z,15.50
2023-02-26T13:35:17.015Z,15.50
2023-02-26T13:36:21.994Z,15.48
2023-02-26T13:37:37.948Z,15.50
2023-02-26T13:39:07.029Z,15.59
2023-02-26T13:40:14.587Z,15.61
2023-02-26T13:41:22.232Z,15.60
2023-02-26T13:42:53.016Z,15.47
2023-02-26T13:44:24.076Z,15.37
2023-02-26T13:45:31.383Z,15.38
2023-02-26T13:47:16.883Z,15.32
2023-02-26T13:48:35.674Z,15.36
2023-02-26T13:50:15.269Z,15.38
2023-02-26T13:51:43.147Z,15.26
2023-02-26T13:53:01.074Z,15.24
2023-02-26T13:54:08.857Z,15.19
2023-02-26T13:55:36.252Z,15.21
2023-02-26T13:56:37.765Z,15.25
2023-02-26T13:57:47.805Z,15.22
2023-02-26T13:58:55.376Z,15.21
2023-02-26T14:00:29.499Z,15.22
2023-02-26T14:01:48.229Z,15.12
2023-02-26T14:03:29.926Z,15.07
2023-02-26T14:04:33.508Z,15.10
2023-02-26T14:05:35.130Z,15.15
2023-02-26T14:06:43.814Z,15.22
2023-02-26T14:07:55.926Z,15.20
2023-02-26T14:09:03.605Z,15.26
2023-02-26T14:10:16.826Z,15.23
2023-02-26T14:11:18.338Z,15.11
2023-02-26T14:12:26.147Z,15.07
2023-02-26T14:13:35.391Z,15.03
2023-02-26T14:14:42.142Z,15.04
2023-02-26T14:15:50.163Z,15.00
2023-02-26T14:17:14.597Z,14.98
2023-02-26T14:18:51.451Z,14.95
2023-02-26T14:19:52.933Z,14.96
2023-02-26T14:21:32.704Z,14.95
2023-02-26T14:22:36.016Z,15.01
2023-02-26T14:23:38.176Z,15.02
2023-02-26T14:24:55.136Z,14.93
2023-02-26T14:26:06.050Z,15.03
2023-02-26T14:27:23.801Z,15.04
2023-02-26T14:28:25.361Z,14.92
2023-02-26T14:29:41.250Z,14.91
2023-02-26T14:30:50.007Z,14.91
2023-02-26T14:32:01.167Z,14.99
2023-02-26T14:33:05.732Z,15.03